sensor_id;sensor_type;location;lat;lon;timestamp;P1;durP1;ratioP1;P2;durP2;ratioP2
45970;SDS011;31681;48.982;8.394;2023-06-19T00:01:27;9.43;;;8.52;;
45970;SDS011;31681;48.982;8.394;2023-06-19T00:04:00;9.55;;;8.65;;
45970;SDS011;31681;48.982;8.394;2023-06-19T00:06:43;9.48;;;8.57;;
45970;SDS011;31681;48.982;8.394;2023-06-19T00:09:11;12.00;;;10.18;;
45970;SDS011;31681;48.982;8.394;2023-06-19T00:11:45;10.48;;;8.73;;
45970;SDS011;31681;48.982;8.394;2023-06-19T00:14:17;11.68;;;8.55;;
45970;SDS011;31681;48.982;8.394;2023-06-19T00:16:50;11.50;;;8.35;;
45970;SDS011;31681;48.982;8.394;2023-06-19T00:19:25;12.38;;;8.55;;
45970;SDS011;31681;48.982;8.394;2023-06-19T00:21:50;9.20;;;7.55;;
45970;SDS011;31681;48.982;8.394;2023-06-19T00:24:26;8.45;;;7.20;;
45970;SDS011;31681;48.982;8.394;2023-06-19T00:26:52;7.93;;;6.70;;
45970;SDS011;31681;48.982;8.394;2023-06-19T00:29:27;11.02;;;7.18;;
45970;SDS011;31681;48.982;8.394;2023-06-19T00:32:02;6.55;;;5.95;;
45970;SDS011;31681;48.982;8.394;2023-06-19T00:34:30;11.63;;;5.88;;
45970;SDS011;31681;48.982;8.394;2023-06-19T00:37:11;6.60;;;5.78;;
45970;SDS011;31681;48.982;8.394;2023-06-19T00:39:41;6.47;;;5.55;;
45970;SDS011;31681;48.982;8.394;2023-06-19T00:42:08;6.22;;;5.32;;
45970;SDS011;31681;48.982;8.394;2023-06-19T00:44:41;7.68;;;5.25;;
45970;SDS011;31681;48.982;8.394;2023-06-19T00:47:14;7.20;;;5.22;;
45970;SDS011;31681;48.982;8.394;2023-06-19T00:49:53;5.93;;;5.32;;
45970;SDS011;31681;48.982;8.394;2023-06-19T00:52:18;5.45;;;4.95;;
45970;SDS011;31681;48.982;8.394;2023-06-19T00:54:55;6.25;;;4.57;;
45970;SDS011;31681;48.982;8.394;2023-06-19T00:57:26;6.93;;;4.68;;
45970;SDS011;31681;48.982;8.394;2023-06-19T01:00:04;4.78;;;3.97;;
45970;SDS011;31681;48.982;8.394;2023-06-19T01:02:33;5.43;;;3.63;;
45970;SDS011;31681;48.982;8.394;2023-06-19T01:05:10;8.32;;;4.07;;
45970;SDS011;31681;48.982;8.394;2023-06-19T01:10:24;3.67;;;2.92;;
45970;SDS011;31681;48.982;8.394;2023-06-19T01:12:59;5.00;;;3.53;;
45970;SDS011;31681;48.982;8.394;2023-06-19T01:15:25;5.57;;;2.95;;
45970;SDS011;31681;48.982;8.394;2023-06-19T01:17:51;5.57;;;3.33;;
45970;SDS011;31681;48.982;8.394;2023-06-19T01:20:24;3.33;;;2.88;;
45970;SDS011;31681;48.982;8.394;2023-06-19T01:22:52;3.83;;;2.72;;
45970;SDS011;31681;48.982;8.394;2023-06-19T01:25:24;4.25;;;2.85;;
45970;SDS011;31681;48.982;8.394;2023-06-19T01:27:50;3.72;;;3.22;;
45970;SDS011;31681;48.982;8.394;2023-06-19T01:30:15;4.75;;;3.40;;
45970;SDS011;31681;48.982;8.394;2023-06-19T01:35:11;3.00;;;2.75;;
45970;SDS011;31681;48.982;8.394;2023-06-19T01:37:40;4.55;;;3.17;;
45970;SDS011;31681;48.982;8.394;2023-06-19T01:40:09;4.63;;;3.40;;
45970;SDS011;31681;48.982;8.394;2023-06-19T01:42:35;8.35;;;3.40;;
45970;SDS011;31681;48.982;8.394;2023-06-19T01:45:02;4.60;;;3.30;;
45970;SDS011;31681;48.982;8.394;2023-06-19T01:47:28;4.68;;;2.85;;
45970;SDS011;31681;48.982;8.394;2023-06-19T01:50:10;4.40;;;3.17;;
45970;SDS011;31681;48.982;8.394;2023-06-19T01:52:44;3.35;;;2.42;;
45970;SDS011;31681;48.982;8.394;2023-06-19T01:55:14;5.60;;;3.00;;
45970;SDS011;31681;48.982;8.394;2023-06-19T01:57:48;3.60;;;2.92;;
45970;SDS011;31681;48.982;8.394;2023-06-19T02:00:25;4.40;;;3.10;;
45970;SDS011;31681;48.982;8.394;2023-06-19T02:02:51;3.33;;;2.70;;
45970;SDS011;31681;48.982;8.394;2023-06-19T02:05:17;4.88;;;3.13;;
45970;SDS011;31681;48.982;8.394;2023-06-19T02:07:42;4.15;;;3.00;;
45970;SDS011;31681;48.982;8.394;2023-06-19T02:10:07;3.95;;;2.80;;
45970;SDS011;31681;48.982;8.394;2023-06-19T02:12:33;3.13;;;2.63;;
45970;SDS011;31681;48.982;8.394;2023-06-19T02:14:58;4.47;;;2.67;;
45970;SDS011;31681;48.982;8.394;2023-06-19T02:17:24;2.65;;;2.45;;
45970;SDS011;31681;48.982;8.394;2023-06-19T02:19:55;3.17;;;2.80;;
45970;SDS011;31681;48.982;8.394;2023-06-19T02:22:23;4.95;;;2.90;;
45970;SDS011;31681;48.982;8.394;2023-06-19T02:24:49;5.07;;;2.95;;
45970;SDS011;31681;48.982;8.394;2023-06-19T02:27:24;3.13;;;2.47;;
45970;SDS011;31681;48.982;8.394;2023-06-19T02:30:00;5.35;;;3.00;;
45970;SDS011;31681;48.982;8.394;2023-06-19T02:32:26;3.67;;;2.75;;
45970;SDS011;31681;48.982;8.394;2023-06-19T02:34:54;2.72;;;2.50;;
45970;SDS011;31681;48.982;8.394;2023-06-19T02:37:19;3.45;;;3.00;;
45970;SDS011;31681;48.982;8.394;2023-06-19T02:39:47;4.25;;;3.17;;
45970;SDS011;31681;48.982;8.394;2023-06-19T02:42:13;2.75;;;2.53;;
45970;SDS011;31681;48.982;8.394;2023-06-19T02:44:50;2.97;;;2.63;;
45970;SDS011;31681;48.982;8.394;2023-06-19T02:47:23;2.63;;;2.42;;
45970;SDS011;31681;48.982;8.394;2023-06-19T02:49:48;3.95;;;2.88;;
45970;SDS011;31681;48.982;8.394;2023-06-19T02:52:21;3.22;;;2.85;;
45970;SDS011;31681;48.982;8.394;2023-06-19T02:54:55;2.92;;;2.50;;
45970;SDS011;31681;48.982;8.394;2023-06-19T02:57:34;4.50;;;2.53;;
45970;SDS011;31681;48.982;8.394;2023-06-19T03:00:11;3.70;;;2.83;;
45970;SDS011;31681;48.982;8.394;2023-06-19T03:02:41;3.85;;;2.95;;
45970;SDS011;31681;48.982;8.394;2023-06-19T03:05:09;3.47;;;2.88;;
45970;SDS011;31681;48.982;8.394;2023-06-19T03:07:41;3.20;;;2.85;;
45970;SDS011;31681;48.982;8.394;2023-06-19T03:10:10;4.38;;;3.40;;
45970;SDS011;31681;48.982;8.394;2023-06-19T03:12:37;3.03;;;2.70;;
45970;SDS011;31681;48.982;8.394;2023-06-19T03:15:03;4.88;;;3.30;;
45970;SDS011;31681;48.982;8.394;2023-06-19T03:17:31;5.85;;;3.42;;
45970;SDS011;31681;48.982;8.394;2023-06-19T03:19:56;4.80;;;3.55;;
45970;SDS011;31681;48.982;8.394;2023-06-19T03:22:29;4.03;;;3.40;;
45970;SDS011;31681;48.982;8.394;2023-06-19T03:24:57;4.30;;;3.25;;
45970;SDS011;31681;48.982;8.394;2023-06-19T03:27:22;4.28;;;3.55;;
45970;SDS011;31681;48.982;8.394;2023-06-19T03:29:50;5.05;;;3.67;;
45970;SDS011;31681;48.982;8.394;2023-06-19T03:32:22;4.10;;;3.50;;
45970;SDS011;31681;48.982;8.394;2023-06-19T03:34:48;4.82;;;3.40;;
45970;SDS011;31681;48.982;8.394;2023-06-19T03:37:21;6.35;;;3.65;;
45970;SDS011;31681;48.982;8.394;2023-06-19T03:39:56;6.00;;;3.67;;
45970;SDS011;31681;48.982;8.394;2023-06-19T03:42:33;6.85;;;3.95;;
45970;SDS011;31681;48.982;8.394;2023-06-19T03:45:05;5.15;;;3.90;;
45970;SDS011;31681;48.982;8.394;2023-06-19T03:47:40;5.15;;;3.50;;
45970;SDS011;31681;48.982;8.394;2023-06-19T03:50:08;4.00;;;3.38;;
45970;SDS011;31681;48.982;8.394;2023-06-19T03:52:44;4.90;;;3.88;;
45970;SDS011;31681;48.982;8.394;2023-06-19T03:55:19;7.40;;;3.35;;
45970;SDS011;31681;48.982;8.394;2023-06-19T03:57:44;3.88;;;3.22;;
45970;SDS011;31681;48.982;8.394;2023-06-19T04:00:15;4.15;;;3.38;;
45970;SDS011;31681;48.982;8.394;2023-06-19T04:02:47;4.18;;;3.33;;
45970;SDS011;31681;48.982;8.394;2023-06-19T04:05:20;5.43;;;3.72;;
45970;SDS011;31681;48.982;8.394;2023-06-19T04:08:01;3.72;;;3.22;;
45970;SDS011;31681;48.982;8.394;2023-06-19T04:10:29;4.50;;;3.67;;
45970;SDS011;31681;48.982;8.394;2023-06-19T04:13:06;4.35;;;3.10;;
45970;SDS011;31681;48.982;8.394;2023-06-19T04:15:37;4.70;;;3.65;;
45970;SDS011;31681;48.982;8.394;2023-06-19T04:18:09;5.30;;;3.42;;
45970;SDS011;31681;48.982;8.394;2023-06-19T04:20:36;4.18;;;3.40;;
45970;SDS011;31681;48.982;8.394;2023-06-19T04:23:11;5.55;;;3.80;;
45970;SDS011;31681;48.982;8.394;2023-06-19T04:25:51;4.97;;;3.75;;
45970;SDS011;31681;48.982;8.394;2023-06-19T04:28:20;4.88;;;3.60;;
45970;SDS011;31681;48.982;8.394;2023-06-19T04:30:54;5.63;;;4.10;;
45970;SDS011;31681;48.982;8.394;2023-06-19T04:33:26;4.25;;;3.80;;
45970;SDS011;31681;48.982;8.394;2023-06-19T04:35:59;6.00;;;4.15;;
45970;SDS011;31681;48.982;8.394;2023-06-19T04:38:25;4.35;;;3.53;;
45970;SDS011;31681;48.982;8.394;2023-06-19T04:40:53;4.30;;;3.83;;
45970;SDS011;31681;48.982;8.394;2023-06-19T04:43:38;4.53;;;3.38;;
45970;SDS011;31681;48.982;8.394;2023-06-19T04:46:09;4.78;;;3.45;;
45970;SDS011;31681;48.982;8.394;2023-06-19T04:48:37;5.28;;;3.60;;
45970;SDS011;31681;48.982;8.394;2023-06-19T04:51:18;4.20;;;3.42;;
45970;SDS011;31681;48.982;8.394;2023-06-19T04:53:49;4.18;;;3.75;;
45970;SDS011;31681;48.982;8.394;2023-06-19T04:56:14;4.93;;;4.35;;
45970;SDS011;31681;48.982;8.394;2023-06-19T04:59:20;4.28;;;3.78;;
45970;SDS011;31681;48.982;8.394;2023-06-19T05:01:46;5.55;;;3.90;;
45970;SDS011;31681;48.982;8.394;2023-06-19T05:04:18;5.60;;;3.45;;
45970;SDS011;31681;48.982;8.394;2023-06-19T05:06:44;3.95;;;3.55;;
45970;SDS011;31681;48.982;8.394;2023-06-19T05:09:12;4.32;;;3.92;;
45970;SDS011;31681;48.982;8.394;2023-06-19T05:11:42;5.45;;;3.85;;
45970;SDS011;31681;48.982;8.394;2023-06-19T05:14:07;4.05;;;3.65;;
45970;SDS011;31681;48.982;8.394;2023-06-19T05:16:35;4.00;;;3.60;;
45970;SDS011;31681;48.982;8.394;2023-06-19T05:19:03;4.07;;;3.65;;
45970;SDS011;31681;48.982;8.394;2023-06-19T05:21:28;4.30;;;3.60;;
45970;SDS011;31681;48.982;8.394;2023-06-19T05:23:53;3.90;;;3.42;;
45970;SDS011;31681;48.982;8.394;2023-06-19T05:26:21;3.72;;;3.38;;
45970;SDS011;31681;48.982;8.394;2023-06-19T05:28:47;4.07;;;3.55;;
45970;SDS011;31681;48.982;8.394;2023-06-19T05:31:12;8.70;;;3.92;;
45970;SDS011;31681;48.982;8.394;2023-06-19T05:33:38;5.60;;;4.07;;
45970;SDS011;31681;48.982;8.394;2023-06-19T05:36:06;4.15;;;3.30;;
45970;SDS011;31681;48.982;8.394;2023-06-19T05:38:40;4.72;;;4.15;;
45970;SDS011;31681;48.982;8.394;2023-06-19T05:41:21;4.55;;;3.60;;
45970;SDS011;31681;48.982;8.394;2023-06-19T05:43:46;5.25;;;4.00;;
45970;SDS011;31681;48.982;8.394;2023-06-19T05:46:21;5.97;;;4.25;;
45970;SDS011;31681;48.982;8.394;2023-06-19T05:48:46;4.88;;;4.05;;
45970;SDS011;31681;48.982;8.394;2023-06-19T05:51:12;6.07;;;4.07;;
45970;SDS011;31681;48.982;8.394;2023-06-19T05:53:37;4.60;;;3.50;;
45970;SDS011;31681;48.982;8.394;2023-06-19T05:56:07;5.78;;;3.97;;
45970;SDS011;31681;48.982;8.394;2023-06-19T05:58:34;4.63;;;3.92;;
45970;SDS011;31681;48.982;8.394;2023-06-19T06:01:16;5.15;;;4.65;;
45970;SDS011;31681;48.982;8.394;2023-06-19T06:03:50;5.05;;;4.18;;
45970;SDS011;31681;48.982;8.394;2023-06-19T06:06:15;4.35;;;3.95;;
45970;SDS011;31681;48.982;8.394;2023-06-19T06:08:43;8.25;;;4.22;;
45970;SDS011;31681;48.982;8.394;2023-06-19T06:11:21;5.97;;;4.00;;
45970;SDS011;31681;48.982;8.394;2023-06-19T06:13:49;4.88;;;3.60;;
45970;SDS011;31681;48.982;8.394;2023-06-19T06:16:25;4.47;;;4.03;;
45970;SDS011;31681;48.982;8.394;2023-06-19T06:19:02;5.32;;;4.18;;
45970;SDS011;31681;48.982;8.394;2023-06-19T06:21:37;4.15;;;3.75;;
45970;SDS011;31681;48.982;8.394;2023-06-19T06:24:09;6.15;;;3.67;;
45970;SDS011;31681;48.982;8.394;2023-06-19T06:26:42;6.03;;;3.78;;
45970;SDS011;31681;48.982;8.394;2023-06-19T06:29:10;4.20;;;3.80;;
45970;SDS011;31681;48.982;8.394;2023-06-19T06:31:48;3.70;;;3.40;;
45970;SDS011;31681;48.982;8.394;2023-06-19T06:34:21;3.70;;;3.33;;
45970;SDS011;31681;48.982;8.394;2023-06-19T06:36:46;3.92;;;3.53;;
45970;SDS011;31681;48.982;8.394;2023-06-19T06:39:19;4.40;;;3.33;;
45970;SDS011;31681;48.982;8.394;2023-06-19T06:41:44;5.00;;;3.35;;
45970;SDS011;31681;48.982;8.394;2023-06-19T06:44:11;5.95;;;3.10;;
45970;SDS011;31681;48.982;8.394;2023-06-19T06:46:36;3.67;;;3.03;;
45970;SDS011;31681;48.982;8.394;2023-06-19T06:49:02;3.35;;;3.00;;
45970;SDS011;31681;48.982;8.394;2023-06-19T06:51:45;3.63;;;3.10;;
45970;SDS011;31681;48.982;8.394;2023-06-19T06:54:18;2.60;;;2.35;;
45970;SDS011;31681;48.982;8.394;2023-06-19T06:56:51;2.50;;;2.20;;
45970;SDS011;31681;48.982;8.394;2023-06-19T06:59:21;3.05;;;2.75;;
45970;SDS011;31681;48.982;8.394;2023-06-19T07:01:47;6.28;;;3.53;;
45970;SDS011;31681;48.982;8.394;2023-06-19T07:04:15;3.78;;;2.72;;
45970;SDS011;31681;48.982;8.394;2023-06-19T07:06:40;2.80;;;2.60;;
45970;SDS011;31681;48.982;8.394;2023-06-19T07:09:05;3.22;;;2.85;;
45970;SDS011;31681;48.982;8.394;2023-06-19T07:11:30;3.42;;;2.95;;
45970;SDS011;31681;48.982;8.394;2023-06-19T07:13:56;2.95;;;2.60;;
45970;SDS011;31681;48.982;8.394;2023-06-19T07:16:21;3.58;;;2.83;;
45970;SDS011;31681;48.982;8.394;2023-06-19T07:18:49;3.22;;;2.63;;
45970;SDS011;31681;48.982;8.394;2023-06-19T07:21:19;6.55;;;3.03;;
45970;SDS011;31681;48.982;8.394;2023-06-19T07:23:50;2.88;;;2.42;;
45970;SDS011;31681;48.982;8.394;2023-06-19T07:26:15;5.72;;;3.10;;
45970;SDS011;31681;48.982;8.394;2023-06-19T07:28:41;3.15;;;2.70;;
45970;SDS011;31681;48.982;8.394;2023-06-19T07:31:06;3.80;;;2.95;;
45970;SDS011;31681;48.982;8.394;2023-06-19T07:33:43;3.42;;;2.97;;
45970;SDS011;31681;48.982;8.394;2023-06-19T07:36:09;3.20;;;2.90;;
45970;SDS011;31681;48.982;8.394;2023-06-19T07:38:49;3.20;;;2.90;;
45970;SDS011;31681;48.982;8.394;2023-06-19T07:41:14;3.03;;;2.83;;
45970;SDS011;31681;48.982;8.394;2023-06-19T07:43:51;3.05;;;2.78;;
45970;SDS011;31681;48.982;8.394;2023-06-19T07:46:28;3.50;;;2.78;;
45970;SDS011;31681;48.982;8.394;2023-06-19T07:49:01;3.53;;;2.97;;
45970;SDS011;31681;48.982;8.394;2023-06-19T07:51:34;5.40;;;3.75;;
45970;SDS011;31681;48.982;8.394;2023-06-19T07:53:59;4.72;;;3.25;;
45970;SDS011;31681;48.982;8.394;2023-06-19T07:56:36;3.85;;;2.80;;
45970;SDS011;31681;48.982;8.394;2023-06-19T07:59:09;5.43;;;3.75;;
45970;SDS011;31681;48.982;8.394;2023-06-19T08:01:43;3.55;;;3.20;;
45970;SDS011;31681;48.982;8.394;2023-06-19T08:04:16;3.70;;;3.40;;
45970;SDS011;31681;48.982;8.394;2023-06-19T08:06:42;4.63;;;3.50;;
45970;SDS011;31681;48.982;8.394;2023-06-19T08:09:22;4.38;;;3.95;;
45970;SDS011;31681;48.982;8.394;2023-06-19T08:11:55;4.55;;;3.63;;
45970;SDS011;31681;48.982;8.394;2023-06-19T08:14:23;5.03;;;4.45;;
45970;SDS011;31681;48.982;8.394;2023-06-19T08:16:51;4.57;;;3.65;;
45970;SDS011;31681;48.982;8.394;2023-06-19T08:19:16;4.97;;;3.83;;
45970;SDS011;31681;48.982;8.394;2023-06-19T08:21:41;5.35;;;4.07;;
45970;SDS011;31681;48.982;8.394;2023-06-19T08:24:07;4.85;;;4.30;;
45970;SDS011;31681;48.982;8.394;2023-06-19T08:26:32;4.65;;;4.25;;
45970;SDS011;31681;48.982;8.394;2023-06-19T08:28:57;4.35;;;3.95;;
45970;SDS011;31681;48.982;8.394;2023-06-19T08:31:23;4.43;;;4.03;;
45970;SDS011;31681;48.982;8.394;2023-06-19T08:33:57;4.78;;;4.22;;
45970;SDS011;31681;48.982;8.394;2023-06-19T08:36:24;6.53;;;4.25;;
45970;SDS011;31681;48.982;8.394;2023-06-19T08:39:00;5.53;;;4.10;;
45970;SDS011;31681;48.982;8.394;2023-06-19T08:41:30;4.18;;;3.88;;
45970;SDS011;31681;48.982;8.394;2023-06-19T08:44:04;3.85;;;3.55;;
45970;SDS011;31681;48.982;8.394;2023-06-19T08:46:32;4.28;;;3.88;;
45970;SDS011;31681;48.982;8.394;2023-06-19T08:49:05;4.55;;;3.95;;
45970;SDS011;31681;48.982;8.394;2023-06-19T08:51:31;5.85;;;4.13;;
45970;SDS011;31681;48.982;8.394;2023-06-19T08:54:01;5.28;;;4.70;;
45970;SDS011;31681;48.982;8.394;2023-06-19T08:56:26;5.10;;;4.45;;
45970;SDS011;31681;48.982;8.394;2023-06-19T08:58:51;5.25;;;4.32;;
45970;SDS011;31681;48.982;8.394;2023-06-19T09:01:17;4.13;;;3.72;;
45970;SDS011;31681;48.982;8.394;2023-06-19T09:03:43;4.70;;;4.18;;
45970;SDS011;31681;48.982;8.394;2023-06-19T09:06:09;4.78;;;4.35;;
45970;SDS011;31681;48.982;8.394;2023-06-19T09:08:37;5.90;;;4.20;;
45970;SDS011;31681;48.982;8.394;2023-06-19T09:11:03;5.57;;;4.57;;
45970;SDS011;31681;48.982;8.394;2023-06-19T09:13:29;5.28;;;3.83;;
45970;SDS011;31681;48.982;8.394;2023-06-19T09:16:13;5.18;;;4.25;;
45970;SDS011;31681;48.982;8.394;2023-06-19T09:18:42;3.97;;;3.67;;
45970;SDS011;31681;48.982;8.394;2023-06-19T09:21:17;5.57;;;4.95;;
45970;SDS011;31681;48.982;8.394;2023-06-19T09:23:43;5.97;;;4.80;;
45970;SDS011;31681;48.982;8.394;2023-06-19T09:26:09;5.50;;;5.00;;
45970;SDS011;31681;48.982;8.394;2023-06-19T09:28:39;7.18;;;4.40;;
45970;SDS011;31681;48.982;8.394;2023-06-19T09:31:04;5.93;;;4.88;;
45970;SDS011;31681;48.982;8.394;2023-06-19T09:33:33;5.32;;;4.82;;
45970;SDS011;31681;48.982;8.394;2023-06-19T09:35:59;6.68;;;4.85;;
45970;SDS011;31681;48.982;8.394;2023-06-19T09:38:32;6.05;;;4.65;;
45970;SDS011;31681;48.982;8.394;2023-06-19T09:41:00;5.93;;;5.07;;
45970;SDS011;31681;48.982;8.394;2023-06-19T09:43:30;5.30;;;4.63;;
45970;SDS011;31681;48.982;8.394;2023-06-19T09:46:03;5.97;;;4.78;;
45970;SDS011;31681;48.982;8.394;2023-06-19T09:48:30;7.72;;;5.10;;
45970;SDS011;31681;48.982;8.394;2023-06-19T09:53:40;5.65;;;4.53;;
45970;SDS011;31681;48.982;8.394;2023-06-19T09:56:14;6.47;;;5.20;;
45970;SDS011;31681;48.982;8.394;2023-06-19T09:58:47;6.53;;;5.57;;
45970;SDS011;31681;48.982;8.394;2023-06-19T10:01:20;5.60;;;4.35;;
45970;SDS011;31681;48.982;8.394;2023-06-19T10:03:47;6.55;;;4.72;;
45970;SDS011;31681;48.982;8.394;2023-06-19T10:06:14;4.50;;;3.95;;
45970;SDS011;31681;48.982;8.394;2023-06-19T10:08:44;5.20;;;4.70;;
45970;SDS011;31681;48.982;8.394;2023-06-19T10:11:10;4.97;;;4.43;;
45970;SDS011;31681;48.982;8.394;2023-06-19T10:13:36;5.45;;;4.57;;
45970;SDS011;31681;48.982;8.394;2023-06-19T10:16:03;5.60;;;4.65;;
45970;SDS011;31681;48.982;8.394;2023-06-19T10:18:31;7.03;;;4.38;;
45970;SDS011;31681;48.982;8.394;2023-06-19T10:21:20;4.80;;;4.35;;
45970;SDS011;31681;48.982;8.394;2023-06-19T10:23:52;6.75;;;5.20;;
45970;SDS011;31681;48.982;8.394;2023-06-19T10:26:18;6.93;;;5.15;;
45970;SDS011;31681;48.982;8.394;2023-06-19T10:28:54;4.85;;;4.43;;
45970;SDS011;31681;48.982;8.394;2023-06-19T10:31:20;5.45;;;4.95;;
45970;SDS011;31681;48.982;8.394;2023-06-19T10:33:52;5.35;;;4.72;;
45970;SDS011;31681;48.982;8.394;2023-06-19T10:36:36;5.40;;;4.90;;
45970;SDS011;31681;48.982;8.394;2023-06-19T10:39:01;6.10;;;4.60;;
45970;SDS011;31681;48.982;8.394;2023-06-19T10:41:29;7.28;;;4.93;;
45970;SDS011;31681;48.982;8.394;2023-06-19T10:44:07;5.38;;;4.88;;
45970;SDS011;31681;48.982;8.394;2023-06-19T10:46:38;5.93;;;5.00;;
45970;SDS011;31681;48.982;8.394;2023-06-19T10:49:07;4.80;;;4.10;;
45970;SDS011;31681;48.982;8.394;2023-06-19T10:51:36;4.72;;;4.32;;
45970;SDS011;31681;48.982;8.394;2023-06-19T10:54:05;6.13;;;4.93;;
45970;SDS011;31681;48.982;8.394;2023-06-19T10:56:30;4.97;;;4.55;;
45970;SDS011;31681;48.982;8.394;2023-06-19T10:58:56;8.20;;;4.75;;
45970;SDS011;31681;48.982;8.394;2023-06-19T11:01:31;6.05;;;4.90;;
45970;SDS011;31681;48.982;8.394;2023-06-19T11:04:07;5.18;;;4.68;;
45970;SDS011;31681;48.982;8.394;2023-06-19T11:06:36;7.28;;;5.07;;
45970;SDS011;31681;48.982;8.394;2023-06-19T11:09:05;5.18;;;4.68;;
45970;SDS011;31681;48.982;8.394;2023-06-19T11:11:36;6.65;;;4.68;;
45970;SDS011;31681;48.982;8.394;2023-06-19T11:14:03;5.05;;;4.43;;
45970;SDS011;31681;48.982;8.394;2023-06-19T11:19:57;4.78;;;4.30;;
45970;SDS011;31681;48.982;8.394;2023-06-19T11:22:35;4.75;;;4.13;;
45970;SDS011;31681;48.982;8.394;2023-06-19T11:25:04;4.90;;;4.47;;
45970;SDS011;31681;48.982;8.394;2023-06-19T11:27:30;6.90;;;4.97;;
45970;SDS011;31681;48.982;8.394;2023-06-19T11:29:56;7.03;;;5.15;;
45970;SDS011;31681;48.982;8.394;2023-06-19T11:32:23;5.07;;;4.57;;
45970;SDS011;31681;48.982;8.394;2023-06-19T11:34:50;7.50;;;4.47;;
45970;SDS011;31681;48.982;8.394;2023-06-19T11:37:20;8.38;;;4.80;;
45970;SDS011;31681;48.982;8.394;2023-06-19T11:39:47;5.97;;;4.80;;
45970;SDS011;31681;48.982;8.394;2023-06-19T11:42:13;4.47;;;4.07;;
45970;SDS011;31681;48.982;8.394;2023-06-19T11:45:00;5.90;;;4.57;;
45970;SDS011;31681;48.982;8.394;2023-06-19T11:47:33;5.70;;;4.65;;
45970;SDS011;31681;48.982;8.394;2023-06-19T11:49:59;4.65;;;4.20;;
45970;SDS011;31681;48.982;8.394;2023-06-19T11:52:25;5.22;;;4.63;;
45970;SDS011;31681;48.982;8.394;2023-06-19T11:55:00;5.32;;;4.70;;
45970;SDS011;31681;48.982;8.394;2023-06-19T11:57:41;6.85;;;4.95;;
45970;SDS011;31681;48.982;8.394;2023-06-19T12:00:12;5.53;;;5.03;;
45970;SDS011;31681;48.982;8.394;2023-06-19T12:02:38;5.50;;;4.32;;
45970;SDS011;31681;48.982;8.394;2023-06-19T12:05:03;5.80;;;4.68;;
45970;SDS011;31681;48.982;8.394;2023-06-19T12:07:28;5.78;;;4.40;;
45970;SDS011;31681;48.982;8.394;2023-06-19T12:09:54;5.32;;;4.72;;
45970;SDS011;31681;48.982;8.394;2023-06-19T12:12:19;5.60;;;4.53;;
45970;SDS011;31681;48.982;8.394;2023-06-19T12:14:52;5.45;;;4.95;;
45970;SDS011;31681;48.982;8.394;2023-06-19T12:17:20;4.63;;;4.22;;
45970;SDS011;31681;48.982;8.394;2023-06-19T12:19:56;5.32;;;4.30;;
45970;SDS011;31681;48.982;8.394;2023-06-19T12:22:21;4.18;;;3.70;;
45970;SDS011;31681;48.982;8.394;2023-06-19T12:24:46;6.13;;;4.20;;
45970;SDS011;31681;48.982;8.394;2023-06-19T12:27:12;5.25;;;3.97;;
45970;SDS011;31681;48.982;8.394;2023-06-19T12:29:37;5.45;;;4.22;;
45970;SDS011;31681;48.982;8.394;2023-06-19T12:32:05;4.70;;;4.25;;
45970;SDS011;31681;48.982;8.394;2023-06-19T12:34:30;6.45;;;4.30;;
45970;SDS011;31681;48.982;8.394;2023-06-19T12:36:56;5.40;;;4.40;;
45970;SDS011;31681;48.982;8.394;2023-06-19T12:39:24;6.07;;;4.10;;
45970;SDS011;31681;48.982;8.394;2023-06-19T12:41:50;4.40;;;4.00;;
45970;SDS011;31681;48.982;8.394;2023-06-19T12:44:15;5.13;;;4.63;;
45970;SDS011;31681;48.982;8.394;2023-06-19T12:46:40;5.53;;;4.50;;
45970;SDS011;31681;48.982;8.394;2023-06-19T12:49:18;6.68;;;4.35;;
45970;SDS011;31681;48.982;8.394;2023-06-19T12:51:53;4.88;;;4.38;;
45970;SDS011;31681;48.982;8.394;2023-06-19T12:54:21;5.18;;;4.68;;
45970;SDS011;31681;48.982;8.394;2023-06-19T12:56:49;6.72;;;3.85;;
45970;SDS011;31681;48.982;8.394;2023-06-19T12:59:27;4.55;;;4.15;;
45970;SDS011;31681;48.982;8.394;2023-06-19T13:01:54;6.50;;;4.28;;
45970;SDS011;31681;48.982;8.394;2023-06-19T13:04:29;4.28;;;3.90;;
45970;SDS011;31681;48.982;8.394;2023-06-19T13:06:57;4.28;;;3.88;;
45970;SDS011;31681;48.982;8.394;2023-06-19T13:12:08;6.07;;;3.90;;
45970;SDS011;31681;48.982;8.394;2023-06-19T13:14:45;4.00;;;3.60;;
45970;SDS011;31681;48.982;8.394;2023-06-19T13:17:20;4.25;;;3.85;;
45970;SDS011;31681;48.982;8.394;2023-06-19T13:19:54;4.10;;;3.55;;
45970;SDS011;31681;48.982;8.394;2023-06-19T13:22:22;5.53;;;3.63;;
45970;SDS011;31681;48.982;8.394;2023-06-19T13:24:55;4.40;;;3.75;;
45970;SDS011;31681;48.982;8.394;2023-06-19T13:27:23;5.85;;;3.80;;
45970;SDS011;31681;48.982;8.394;2023-06-19T13:29:56;4.07;;;3.78;;
45970;SDS011;31681;48.982;8.394;2023-06-19T13:32:32;4.43;;;4.03;;
45970;SDS011;31681;48.982;8.394;2023-06-19T13:34:57;4.50;;;4.10;;
45970;SDS011;31681;48.982;8.394;2023-06-19T13:37:41;4.30;;;4.00;;
45970;SDS011;31681;48.982;8.394;2023-06-19T13:40:14;4.97;;;4.47;;
45970;SDS011;31681;48.982;8.394;2023-06-19T13:42:44;4.05;;;3.65;;
45970;SDS011;31681;48.982;8.394;2023-06-19T13:45:10;6.22;;;4.38;;
45970;SDS011;31681;48.982;8.394;2023-06-19T13:47:35;5.15;;;4.05;;
45970;SDS011;31681;48.982;8.394;2023-06-19T13:50:00;5.63;;;4.35;;
45970;SDS011;31681;48.982;8.394;2023-06-19T13:52:28;4.93;;;4.32;;
45970;SDS011;31681;48.982;8.394;2023-06-19T13:54:54;5.00;;;4.57;;
45970;SDS011;31681;48.982;8.394;2023-06-19T13:57:37;5.90;;;4.32;;
45970;SDS011;31681;48.982;8.394;2023-06-19T14:00:03;6.13;;;4.18;;
45970;SDS011;31681;48.982;8.394;2023-06-19T14:02:40;4.25;;;3.85;;
45970;SDS011;31681;48.982;8.394;2023-06-19T14:05:15;4.93;;;3.95;;
45970;SDS011;31681;48.982;8.394;2023-06-19T14:07:51;4.75;;;4.32;;
45970;SDS011;31681;48.982;8.394;2023-06-19T14:10:20;6.10;;;3.90;;
45970;SDS011;31681;48.982;8.394;2023-06-19T14:12:54;4.13;;;3.70;;
45970;SDS011;31681;48.982;8.394;2023-06-19T14:15:27;3.75;;;3.45;;
45970;SDS011;31681;48.982;8.394;2023-06-19T14:17:55;4.32;;;3.88;;
45970;SDS011;31681;48.982;8.394;2023-06-19T14:20:23;9.38;;;4.38;;
45970;SDS011;31681;48.982;8.394;2023-06-19T14:23:06;5.38;;;4.07;;
45970;SDS011;31681;48.982;8.394;2023-06-19T14:25:34;6.20;;;3.90;;
45970;SDS011;31681;48.982;8.394;2023-06-19T14:28:03;4.90;;;4.45;;
45970;SDS011;31681;48.982;8.394;2023-06-19T14:30:32;6.65;;;4.43;;
45970;SDS011;31681;48.982;8.394;2023-06-19T14:33:13;4.72;;;3.88;;
45970;SDS011;31681;48.982;8.394;2023-06-19T14:35:42;5.72;;;4.72;;
45970;SDS011;31681;48.982;8.394;2023-06-19T14:38:10;4.53;;;4.13;;
45970;SDS011;31681;48.982;8.394;2023-06-19T14:40:38;4.47;;;4.07;;
45970;SDS011;31681;48.982;8.394;2023-06-19T14:43:03;4.18;;;3.80;;
45970;SDS011;31681;48.982;8.394;2023-06-19T14:45:33;4.03;;;3.47;;
45970;SDS011;31681;48.982;8.394;2023-06-19T14:48:07;6.78;;;3.90;;
45970;SDS011;31681;48.982;8.394;2023-06-19T14:50:35;5.15;;;4.43;;
45970;SDS011;31681;48.982;8.394;2023-06-19T14:53:01;5.32;;;3.92;;
45970;SDS011;31681;48.982;8.394;2023-06-19T14:55:26;4.50;;;3.70;;
45970;SDS011;31681;48.982;8.394;2023-06-19T14:57:51;5.35;;;4.00;;
45970;SDS011;31681;48.982;8.394;2023-06-19T15:00:26;7.93;;;4.50;;
45970;SDS011;31681;48.982;8.394;2023-06-19T15:02:53;4.65;;;4.25;;
45970;SDS011;31681;48.982;8.394;2023-06-19T15:05:34;4.82;;;4.43;;
45970;SDS011;31681;48.982;8.394;2023-06-19T15:08:00;5.68;;;4.20;;
45970;SDS011;31681;48.982;8.394;2023-06-19T15:10:33;7.60;;;4.47;;
45970;SDS011;31681;48.982;8.394;2023-06-19T15:12:59;5.20;;;4.70;;
45970;SDS011;31681;48.982;8.394;2023-06-19T15:15:41;5.00;;;4.50;;
45970;SDS011;31681;48.982;8.394;2023-06-19T15:18:06;4.80;;;4.40;;
45970;SDS011;31681;48.982;8.394;2023-06-19T15:20:34;4.57;;;4.18;;